sensor_id;sensor_type;location;lat;lon;timestamp;pressure;altitude;pressure_sealevel;temperature;humidity
17855;BME280;9053;53.358;6.382;2023-09-18T00:02:17;100797.59;;;18.80;100.00
17855;BME280;9053;53.358;6.382;2023-09-18T00:04:47;100802.03;;;18.77;100.00
17855;BME280;9053;53.358;6.382;2023-09-18T00:07:17;100788.72;;;18.72;100.00
17855;BME280;9053;53.358;6.382;2023-09-18T00:09:47;100782.47;;;18.69;100.00
17855;BME280;9053;53.358;6.382;2023-09-18T00:12:18;100775.38;;;18.68;100.00
17855;BME280;9053;53.358;6.382;2023-09-18T00:14:51;100767.38;;;18.65;100.00
17855;BME280;9053;53.358;6.382;2023-09-18T00:17:23;100763.81;;;18.64;100.00
17855;BME280;9053;53.358;6.382;2023-09-18T00:19:53;100752.28;;;18.64;100.00
17855;BME280;9053;53.358;6.382;2023-09-18T00:22:24;100739.88;;;18.63;100.00
17855;BME280;9053;53.358;6.382;2023-09-18T00:24:55;100723.88;;;18.61;100.00
17855;BME280;9053;53.358;6.382;2023-09-18T00:27:25;100713.22;;;18.59;100.00
17855;BME280;9053;53.358;6.382;2023-09-18T00:29:55;100695.47;;;18.58;100.00
17855;BME280;9053;53.358;6.382;2023-09-18T00:32:28;100691.06;;;18.57;100.00
17855;BME280;9053;53.358;6.382;2023-09-18T00:34:58;100695.47;;;18.58;100.00
17855;BME280;9053;53.358;6.382;2023-09-18T00:37:28;100671.50;;;18.62;100.00
17855;BME280;9053;53.358;6.382;2023-09-18T00:39:58;100672.41;;;18.65;100.00
17855;BME280;9053;53.358;6.382;2023-09-18T00:42:28;100662.63;;;18.67;100.00
17855;BME280;9053;53.358;6.382;2023-09-18T00:44:59;100654.63;;;18.69;100.00
17855;BME280;9053;53.358;6.382;2023-09-18T00:47:31;100645.75;;;18.70;100.00
17855;BME280;9053;53.358;6.382;2023-09-18T00:50:04;100643.94;;;18.72;100.00
17855;BME280;9053;53.358;6.382;2023-09-18T00:52:38;100628.88;;;18.72;100.00
17855;BME280;9053;53.358;6.382;2023-09-18T00:55:08;100624.44;;;18.73;100.00
17855;BME280;9053;53.358;6.382;2023-09-18T00:57:39;100617.31;;;18.72;100.00
17855;BME280;9053;53.358;6.382;2023-09-18T01:00:12;100604.00;;;18.72;100.00
17855;BME280;9053;53.358;6.382;2023-09-18T01:02:46;100596.00;;;18.73;100.00
17855;BME280;9053;53.358;6.382;2023-09-18T01:05:16;100589.78;;;18.74;100.00
17855;BME280;9053;53.358;6.382;2023-09-18T01:07:47;100585.34;;;18.75;100.00
17855;BME280;9053;53.358;6.382;2023-09-18T01:10:18;100586.25;;;18.78;100.00
17855;BME280;9053;53.358;6.382;2023-09-18T01:12:56;100580.00;;;18.79;100.00
17855;BME280;9053;53.358;6.382;2023-09-18T01:15:33;100582.69;;;18.81;100.00
17855;BME280;9053;53.358;6.382;2023-09-18T01:18:09;100574.69;;;18.81;100.00
17855;BME280;9053;53.358;6.382;2023-09-18T01:20:39;100574.69;;;18.81;100.00
17855;BME280;9053;53.358;6.382;2023-09-18T01:23:11;100570.25;;;18.81;100.00
17855;BME280;9053;53.358;6.382;2023-09-18T01:25:41;100572.91;;;18.81;100.00
17855;BME280;9053;53.358;6.382;2023-09-18T01:28:11;100575.59;;;18.78;100.00
17855;BME280;9053;53.358;6.382;2023-09-18T01:30:43;100574.72;;;18.76;100.00
17855;BME280;9053;53.358;6.382;2023-09-18T01:33:14;100579.13;;;18.74;100.00
17855;BME280;9053;53.358;6.382;2023-09-18T01:35:45;100578.28;;;18.75;100.00
17855;BME280;9053;53.358;6.382;2023-09-18T01:38:18;100577.38;;;18.78;100.00
17855;BME280;9053;53.358;6.382;2023-09-18T01:40:49;100567.59;;;18.80;100.00
17855;BME280;9053;53.358;6.382;2023-09-18T01:43:20;100564.94;;;18.80;100.00
17855;BME280;9053;53.358;6.382;2023-09-18T01:45:50;100567.59;;;18.77;100.00
17855;BME280;9053;53.358;6.382;2023-09-18T01:48:20;100561.38;;;18.73;100.00
17855;BME280;9053;53.358;6.382;2023-09-18T01:50:50;100561.38;;;18.69;100.00
17855;BME280;9053;53.358;6.382;2023-09-18T01:53:23;100556.94;;;18.65;100.00
17855;BME280;9053;53.358;6.382;2023-09-18T01:55:53;100547.19;;;18.62;100.00
17855;BME280;9053;53.358;6.382;2023-09-18T01:58:23;100533.03;;;18.60;100.00
17855;BME280;9053;53.358;6.382;2023-09-18T02:00:54;100520.59;;;18.59;100.00
17855;BME280;9053;53.358;6.382;2023-09-18T02:03:25;100513.47;;;18.59;100.00
17855;BME280;9053;53.358;6.382;2023-09-18T02:06:14;100511.69;;;18.62;100.00
17855;BME280;9053;53.358;6.382;2023-09-18T02:08:47;100515.25;;;18.64;100.00
17855;BME280;9053;53.358;6.382;2023-09-18T02:11:18;100508.16;;;18.67;100.00
17855;BME280;9053;53.358;6.382;2023-09-18T02:13:47;100499.25;;;18.70;100.00
17855;BME280;9053;53.358;6.382;2023-09-18T02:16:17;100501.88;;;18.71;100.00
17855;BME280;9053;53.358;6.382;2023-09-18T02:18:49;100500.13;;;18.75;100.00
17855;BME280;9053;53.358;6.382;2023-09-18T02:21:20;100497.44;;;18.75;100.00
17855;BME280;9053;53.358;6.382;2023-09-18T02:23:54;100501.00;;;18.77;100.00
17855;BME280;9053;53.358;6.382;2023-09-18T02:26:24;100495.69;;;18.80;100.00
17855;BME280;9053;53.358;6.382;2023-09-18T02:28:55;100486.78;;;18.83;100.00
17855;BME280;9053;53.358;6.382;2023-09-18T02:31:25;100490.28;;;18.85;100.00
17855;BME280;9053;53.358;6.382;2023-09-18T02:33:55;100492.06;;;18.87;100.00
17855;BME280;9053;53.358;6.382;2023-09-18T02:36:25;100488.50;;;18.87;100.00
17855;BME280;9053;53.358;6.382;2023-09-18T02:38:58;100488.53;;;18.85;100.00
17855;BME280;9053;53.358;6.382;2023-09-18T02:41:28;100484.97;;;18.86;100.00
17855;BME280;9053;53.358;6.382;2023-09-18T02:43:58;100472.56;;;18.85;100.00
17855;BME280;9053;53.358;6.382;2023-09-18T02:46:28;100469.00;;;18.83;100.00
17855;BME280;9053;53.358;6.382;2023-09-18T02:48:58;100465.44;;;18.84;100.00
17855;BME280;9053;53.358;6.382;2023-09-18T02:51:27;100461.03;;;18.83;100.00
17855;BME280;9053;53.358;6.382;2023-09-18T02:54:01;100449.47;;;18.84;100.00
17855;BME280;9053;53.358;6.382;2023-09-18T02:56:31;100454.78;;;18.86;100.00
17855;BME280;9053;53.358;6.382;2023-09-18T02:59:01;100446.78;;;18.86;100.00
17855;BME280;9053;53.358;6.382;2023-09-18T03:01:31;100434.34;;;18.86;100.00
17855;BME280;9053;53.358;6.382;2023-09-18T03:04:00;100427.25;;;18.88;100.00
17855;BME280;9053;53.358;6.382;2023-09-18T03:06:31;100421.03;;;18.86;100.00
17855;BME280;9053;53.358;6.382;2023-09-18T03:09:03;100421.06;;;18.83;100.00
17855;BME280;9053;53.358;6.382;2023-09-18T03:11:33;100417.53;;;18.83;100.00
17855;BME280;9053;53.358;6.382;2023-09-18T03:14:03;100405.06;;;18.83;100.00
17855;BME280;9053;53.358;6.382;2023-09-18T03:16:33;100390.84;;;18.84;100.00
17855;BME280;9053;53.358;6.382;2023-09-18T03:19:03;100385.53;;;18.86;100.00
17855;BME280;9053;53.358;6.382;2023-09-18T03:21:33;100384.63;;;18.84;100.00
17855;BME280;9053;53.358;6.382;2023-09-18T03:24:06;100378.41;;;18.85;100.00
17855;BME280;9053;53.358;6.382;2023-09-18T03:26:37;100380.16;;;18.89;100.00
17855;BME280;9053;53.358;6.382;2023-09-18T03:29:06;100355.31;;;18.88;100.00
17855;BME280;9053;53.358;6.382;2023-09-18T03:31:36;100350.84;;;18.87;100.00
17855;BME280;9053;53.358;6.382;2023-09-18T03:34:06;100350.84;;;18.87;100.00
17855;BME280;9053;53.358;6.382;2023-09-18T03:36:36;100336.66;;;18.88;100.00
17855;BME280;9053;53.358;6.382;2023-09-18T03:39:09;100329.53;;;18.90;100.00
17855;BME280;9053;53.358;6.382;2023-09-18T03:41:39;100325.97;;;18.93;100.00
17855;BME280;9053;53.358;6.382;2023-09-18T03:44:10;100319.72;;;18.92;100.00
17855;BME280;9053;53.358;6.382;2023-09-18T03:46:40;100309.97;;;18.93;100.00
17855;BME280;9053;53.358;6.382;2023-09-18T03:49:10;100290.41;;;18.92;100.00
17855;BME280;9053;53.358;6.382;2023-09-18T03:51:40;100272.69;;;18.93;100.00
17855;BME280;9053;53.358;6.382;2023-09-18T03:54:14;100264.69;;;18.91;100.00
17855;BME280;9053;53.358;6.382;2023-09-18T03:56:44;100258.44;;;18.92;100.00
17855;BME280;9053;53.358;6.382;2023-09-18T03:59:13;100259.31;;;18.94;100.00
17855;BME280;9053;53.358;6.382;2023-09-18T04:01:43;100257.53;;;18.98;100.00
17855;BME280;9053;53.358;6.382;2023-09-18T04:04:13;100252.16;;;18.99;100.00
17855;BME280;9053;53.358;6.382;2023-09-18T04:06:44;100253.03;;;19.03;100.00
17855;BME280;9053;53.358;6.382;2023-09-18T04:09:16;100244.16;;;19.02;100.00
17855;BME280;9053;53.358;6.382;2023-09-18T04:11:46;100234.38;;;19.03;100.00
17855;BME280;9053;53.358;6.382;2023-09-18T04:14:16;100220.19;;;19.01;100.00
17855;BME280;9053;53.358;6.382;2023-09-18T04:16:46;100203.31;;;19.00;100.00
17855;BME280;9053;53.358;6.382;2023-09-18T04:19:19;100207.72;;;19.01;100.00
17855;BME280;9053;53.358;6.382;2023-09-18T04:21:49;100203.31;;;19.00;100.00
17855;BME280;9053;53.358;6.382;2023-09-18T04:24:22;100206.00;;;18.99;100.00
17855;BME280;9053;53.358;6.382;2023-09-18T04:26:52;100212.22;;;18.98;100.00
17855;BME280;9053;53.358;6.382;2023-09-18T04:29:22;100206.88;;;18.99;100.00
17855;BME280;9053;53.358;6.382;2023-09-18T04:31:52;100202.44;;;19.00;100.00
17855;BME280;9053;53.358;6.382;2023-09-18T04:34:22;100196.19;;;19.01;100.00
17855;BME280;9053;53.358;6.382;2023-09-18T04:36:52;100185.53;;;19.01;100.00
17855;BME280;9053;53.358;6.382;2023-09-18T04:39:25;100169.56;;;19.01;100.00
17855;BME280;9053;53.358;6.382;2023-09-18T04:41:56;100164.22;;;18.99;100.00
17855;BME280;9053;53.358;6.382;2023-09-18T04:44:26;100158.03;;;18.99;100.00
17855;BME280;9053;53.358;6.382;2023-09-18T04:46:56;100152.69;;;18.99;100.00
17855;BME280;9053;53.358;6.382;2023-09-18T04:49:27;100138.53;;;18.94;100.00
17855;BME280;9053;53.358;6.382;2023-09-18T04:51:57;100137.66;;;18.93;100.00
17855;BME280;9053;53.358;6.382;2023-09-18T04:54:30;100128.81;;;18.93;100.00
17855;BME280;9053;53.358;6.382;2023-09-18T04:56:59;100137.66;;;18.93;100.00
17855;BME280;9053;53.358;6.382;2023-09-18T04:59:30;100132.38;;;18.90;100.00
17855;BME280;9053;53.358;6.382;2023-09-18T05:02:00;100119.91;;;18.92;100.00
17855;BME280;9053;53.358;6.382;2023-09-18T05:04:31;100123.44;;;18.94;100.00
17855;BME280;9053;53.358;6.382;2023-09-18T05:07:01;100119.88;;;18.95;100.00
17855;BME280;9053;53.358;6.382;2023-09-18T05:09:34;100119.88;;;18.95;100.00
17855;BME280;9053;53.358;6.382;2023-09-18T05:12:05;100110.97;;;18.96;100.00
17855;BME280;9053;53.358;6.382;2023-09-18T05:14:40;100116.28;;;18.99;100.00
17855;BME280;9053;53.358;6.382;2023-09-18T05:17:14;100112.69;;;19.02;100.00
17855;BME280;9053;53.358;6.382;2023-09-18T05:19:44;100105.56;;;19.06;100.00
17855;BME280;9053;53.358;6.382;2023-09-18T05:22:14;100106.41;;;19.08;100.00
17855;BME280;9053;53.358;6.382;2023-09-18T05:24:47;100097.50;;;19.09;100.00
17855;BME280;9053;53.358;6.382;2023-09-18T05:27:18;100098.38;;;19.11;100.00
17855;BME280;9053;53.358;6.382;2023-09-18T05:29:53;100091.19;;;19.16;100.00
17855;BME280;9053;53.358;6.382;2023-09-18T05:32:22;100087.63;;;19.17;100.00
17855;BME280;9053;53.358;6.382;2023-09-18T05:34:53;100083.16;;;19.19;100.00
17855;BME280;9053;53.358;6.382;2023-09-18T05:37:23;100076.91;;;19.21;100.00
17855;BME280;9053;53.358;6.382;2023-09-18T05:39:56;100070.66;;;19.24;100.00
17855;BME280;9053;53.358;6.382;2023-09-18T05:42:26;100067.97;;;19.26;100.00
17855;BME280;9053;53.358;6.382;2023-09-18T05:44:55;100063.47;;;19.28;100.00
17855;BME280;9053;53.358;6.382;2023-09-18T05:47:25;100064.38;;;19.28;100.00
17855;BME280;9053;53.358;6.382;2023-09-18T05:49:56;100057.22;;;19.30;100.00
17855;BME280;9053;53.358;6.382;2023-09-18T05:52:26;100068.75;;;19.32;100.00
17855;BME280;9053;53.358;6.382;2023-09-18T05:54:59;100076.75;;;19.34;100.00
17855;BME280;9053;53.358;6.382;2023-09-18T05:57:31;100085.56;;;19.37;100.00
17855;BME280;9053;53.358;6.382;2023-09-18T06:00:01;100070.47;;;19.38;100.00
17855;BME280;9053;53.358;6.382;2023-09-18T06:02:32;100078.44;;;19.39;100.00
17855;BME280;9053;53.358;6.382;2023-09-18T06:05:02;100079.28;;;19.41;100.00
17855;BME280;9053;53.358;6.382;2023-09-18T06:07:32;100081.91;;;19.44;100.00
17855;BME280;9053;53.358;6.382;2023-09-18T06:10:08;100091.69;;;19.45;100.00
17855;BME280;9053;53.358;6.382;2023-09-18T06:12:39;100101.38;;;19.50;100.00
17855;BME280;9053;53.358;6.382;2023-09-18T06:15:10;100110.25;;;19.52;100.00
17855;BME280;9053;53.358;6.382;2023-09-18T06:17:50;100102.25;;;19.53;100.00
17855;BME280;9053;53.358;6.382;2023-09-18T06:20:20;100104.84;;;19.56;100.00
17855;BME280;9053;53.358;6.382;2023-09-18T06:22:51;100101.25;;;19.59;100.00
17855;BME280;9053;53.358;6.382;2023-09-18T06:25:24;100100.34;;;19.60;100.00
17855;BME280;9053;53.358;6.382;2023-09-18T06:27:54;100097.63;;;19.63;100.00
17855;BME280;9053;53.358;6.382;2023-09-18T06:30:25;100098.47;;;19.65;100.00
17855;BME280;9053;53.358;6.382;2023-09-18T06:32:57;100105.59;;;19.66;100.00
17855;BME280;9053;53.358;6.382;2023-09-18T06:35:29;100094.91;;;19.67;100.00
17855;BME280;9053;53.358;6.382;2023-09-18T06:37:59;100097.56;;;19.71;100.00
17855;BME280;9053;53.358;6.382;2023-09-18T06:40:31;100082.44;;;19.70;100.00
17855;BME280;9053;53.358;6.382;2023-09-18T06:43:01;100094.84;;;19.74;100.00
17855;BME280;9053;53.358;6.382;2023-09-18T06:45:31;100101.91;;;19.76;100.00
17855;BME280;9053;53.358;6.382;2023-09-18T06:48:07;100093.91;;;19.76;100.00
17855;BME280;9053;53.358;6.382;2023-09-18T06:50:37;100092.13;;;19.78;100.00
17855;BME280;9053;53.358;6.382;2023-09-18T06:53:10;100087.59;;;19.80;100.00
17855;BME280;9053;53.358;6.382;2023-09-18T06:55:43;100092.06;;;19.81;100.00
17855;BME280;9053;53.358;6.382;2023-09-18T06:58:38;100092.91;;;19.83;100.00
17855;BME280;9053;53.358;6.382;2023-09-18T07:01:11;100096.41;;;19.85;100.00
17855;BME280;9053;53.358;6.382;2023-09-18T07:03:45;100092.88;;;19.86;100.00
17855;BME280;9053;53.358;6.382;2023-09-18T07:06:16;100080.34;;;19.90;100.00
17855;BME280;9053;53.358;6.382;2023-09-18T07:08:47;100085.66;;;19.92;100.00
17855;BME280;9053;53.358;6.382;2023-09-18T07:11:20;100073.19;;;19.92;100.00
17855;BME280;9053;53.358;6.382;2023-09-18T07:13:52;100070.50;;;19.94;100.00
17855;BME280;9053;53.358;6.382;2023-09-18T07:16:22;100074.91;;;19.96;100.00
17855;BME280;9053;53.358;6.382;2023-09-18T07:18:52;100053.53;;;19.98;100.00
17855;BME280;9053;53.358;6.382;2023-09-18T07:21:21;100044.56;;;20.00;100.00
17855;BME280;9053;53.358;6.382;2023-09-18T07:23:51;100045.44;;;20.02;100.00
17855;BME280;9053;53.358;6.382;2023-09-18T07:26:24;100037.38;;;20.05;100.00
17855;BME280;9053;53.358;6.382;2023-09-18T07:28:54;100052.44;;;20.08;100.00
17855;BME280;9053;53.358;6.382;2023-09-18T07:31:28;100050.63;;;20.10;100.00
17855;BME280;9053;53.358;6.382;2023-09-18T07:33:58;100039.91;;;20.13;100.00
17855;BME280;9053;53.358;6.382;2023-09-18T07:36:27;100034.53;;;20.16;100.00
17855;BME280;9053;53.358;6.382;2023-09-18T07:38:59;100025.59;;;20.17;100.00
17855;BME280;9053;53.358;6.382;2023-09-18T07:41:32;100058.50;;;20.19;100.00
17855;BME280;9053;53.358;6.382;2023-09-18T07:44:02;100083.38;;;20.21;100.00
17855;BME280;9053;53.358;6.382;2023-09-18T07:46:33;100108.28;;;20.20;100.00
17855;BME280;9053;53.358;6.382;2023-09-18T07:49:09;100124.31;;;20.22;100.00
17855;BME280;9053;53.358;6.382;2023-09-18T07:51:39;100136.78;;;20.21;100.00
17855;BME280;9053;53.358;6.382;2023-09-18T07:54:13;100132.31;;;20.22;100.00
17855;BME280;9053;53.358;6.382;2023-09-18T07:56:52;100119.84;;;20.22;100.00
17855;BME280;9053;53.358;6.382;2023-09-18T07:59:25;100097.56;;;20.23;100.00
17855;BME280;9053;53.358;6.382;2023-09-18T08:01:56;100099.28;;;20.26;100.00
17855;BME280;9053;53.358;6.382;2023-09-18T08:04:30;100088.59;;;20.26;100.00
17855;BME280;9053;53.358;6.382;2023-09-18T08:07:02;100077.91;;;20.29;100.00
17855;BME280;9053;53.358;6.382;2023-09-18T08:09:35;100085.00;;;20.30;100.00
17855;BME280;9053;53.358;6.382;2023-09-18T08:12:09;100094.78;;;20.29;100.00
17855;BME280;9053;53.358;6.382;2023-09-18T08:14:41;100080.56;;;20.29;100.00
17855;BME280;9053;53.358;6.382;2023-09-18T08:17:13;100096.53;;;20.30;100.00
17855;BME280;9053;53.358;6.382;2023-09-18T08:19:43;100090.31;;;20.31;100.00
17855;BME280;9053;53.358;6.382;2023-09-18T08:22:30;100095.59;;;20.33;100.00
17855;BME280;9053;53.358;6.382;2023-09-18T08:25:00;100092.91;;;20.35;100.00
17855;BME280;9053;53.358;6.382;2023-09-18T08:27:35;100097.34;;;20.36;100.00
17855;BME280;9053;53.358;6.382;2023-09-18T08:30:10;100098.25;;;20.36;100.00
17855;BME280;9053;53.358;6.382;2023-09-18T08:32:41;100100.00;;;20.37;100.00
17855;BME280;9053;53.358;6.382;2023-09-18T08:35:14;100112.41;;;20.40;100.00
17855;BME280;9053;53.358;6.382;2023-09-18T08:37:44;100111.50;;;20.41;100.00
17855;BME280;9053;53.358;6.382;2023-09-18T08:40:16;100104.41;;;20.40;100.00
17855;BME280;9053;53.358;6.382;2023-09-18T08:42:51;100103.53;;;20.39;100.00
17855;BME280;9053;53.358;6.382;2023-09-18T08:45:30;100104.41;;;20.40;100.00
17855;BME280;9053;53.358;6.382;2023-09-18T08:48:01;100101.72;;;20.40;100.00
17855;BME280;9053;53.358;6.382;2023-09-18T08:50:33;100086.56;;;20.40;100.00
17855;BME280;9053;53.358;6.382;2023-09-18T08:53:04;100085.69;;;20.41;100.00
17855;BME280;9053;53.358;6.382;2023-09-18T08:55:34;100099.91;;;20.42;100.00
17855;BME280;9053;53.358;6.382;2023-09-18T08:58:07;100098.97;;;20.44;100.00
17855;BME280;9053;53.358;6.382;2023-09-18T09:00:40;100083.81;;;20.45;100.00
17855;BME280;9053;53.358;6.382;2023-09-18T09:03:10;100093.59;;;20.46;100.00
17855;BME280;9053;53.358;6.382;2023-09-18T09:05:42;100092.66;;;20.48;100.00
17855;BME280;9053;53.358;6.382;2023-09-18T09:08:15;100094.38;;;20.51;100.00
17855;BME280;9053;53.358;6.382;2023-09-18T09:10:55;100087.28;;;20.51;100.00
17855;BME280;9053;53.358;6.382;2023-09-18T09:13:29;100082.75;;;20.53;100.00
17855;BME280;9053;53.358;6.382;2023-09-18T09:16:17;100085.44;;;20.55;100.00
17855;BME280;9053;53.358;6.382;2023-09-18T09:18:48;100090.72;;;20.58;100.00
17855;BME280;9053;53.358;6.382;2023-09-18T09:21:19;100089.75;;;20.62;100.00
17855;BME280;9053;53.358;6.382;2023-09-18T09:23:51;100094.16;;;20.66;100.00
17855;BME280;9053;53.358;6.382;2023-09-18T09:26:27;100083.41;;;20.69;100.00
17855;BME280;9053;53.358;6.382;2023-09-18T09:29:19;100086.94;;;20.71;100.00
17855;BME280;9053;53.358;6.382;2023-09-18T09:31:51;100089.47;;;20.78;100.00
17855;BME280;9053;53.358;6.382;2023-09-18T09:34:27;100091.19;;;20.80;100.00
17855;BME280;9053;53.358;6.382;2023-09-18T09:37:06;100108.03;;;20.84;100.00
17855;BME280;9053;53.358;6.382;2023-09-18T09:39:48;100101.81;;;20.83;100.00
17855;BME280;9053;53.358;6.382;2023-09-18T09:42:21;100109.75;;;20.88;100.00
17855;BME280;9053;53.358;6.382;2023-09-18T09:45:01;100121.31;;;20.88;100.00
17855;BME280;9053;53.358;6.382;2023-09-18T09:47:34;100129.25;;;20.91;100.00
17855;BME280;9053;53.358;6.382;2023-09-18T09:50:11;100127.47;;;20.92;100.00
17855;BME280;9053;53.358;6.382;2023-09-18T09:52:45;100136.31;;;20.94;100.00
17855;BME280;9053;53.358;6.382;2023-09-18T09:55:23;100134.56;;;20.94;100.00
17855;BME280;9053;53.358;6.382;2023-09-18T09:57:56;100129.22;;;20.94;100.00
17855;BME280;9053;53.358;6.382;2023-09-18T10:00:35;100128.28;;;20.95;100.00
17855;BME280;9053;53.358;6.382;2023-09-18T10:03:11;100128.19;;;21.00;100.00
17855;BME280;9053;53.358;6.382;2023-09-18T10:05:44;100130.81;;;21.03;100.00
17855;BME280;9053;53.358;6.382;2023-09-18T10:08:22;100139.59;;;21.08;100.00
17855;BME280;9053;53.358;6.382;2023-09-18T10:10:55;100134.19;;;21.11;100.00
17855;BME280;9053;53.358;6.382;2023-09-18T10:13:28;100135.91;;;21.15;100.00
17855;BME280;9053;53.358;6.382;2023-09-18T10:16:04;100138.47;;;21.20;100.00
17855;BME280;9053;53.358;6.382;2023-09-18T10:18:40;100137.47;;;21.24;100.00
17855;BME280;9053;53.358;6.382;2023-09-18T10:21:24;100140.13;;;21.27;100.00
17855;BME280;9053;53.358;6.382;2023-09-18T10:24:04;100140.06;;;21.30;100.00
17855;BME280;9053;53.358;6.382;2023-09-18T10:26:50;100151.53;;;21.35;100.00
17855;BME280;9053;53.358;6.382;2023-09-18T10:29:26;100144.34;;;21.39;100.00
17855;BME280;9053;53.358;6.382;2023-09-18T10:32:03;100148.72;;;21.43;100.00
17855;BME280;9053;53.358;6.382;2023-09-18T10:34:35;100148.56;;;21.49;100.00
17855;BME280;9053;53.358;6.382;2023-09-18T10:37:07;100141.31;;;21.54;100.00
17855;BME280;9053;53.358;6.382;2023-09-18T10:39:38;100140.28;;;21.61;100.00
17855;BME280;9053;53.358;6.382;2023-09-18T10:42:12;100149.06;;;21.67;100.00
17855;BME280;9053;53.358;6.382;2023-09-18T10:44:44;100139.03;;;21.76;100.00
17855;BME280;9053;53.358;6.382;2023-09-18T10:47:17;100147.81;;;21.83;100.00
17855;BME280;9053;53.358;6.382;2023-09-18T10:49:47;100144.03;;;21.92;100.00
17855;BME280;9053;53.358;6.382;2023-09-18T10:52:18;100145.53;;;22.03;100.00
17855;BME280;9053;53.358;6.382;2023-09-18T10:54:51;100131.94;;;22.13;100.00
17855;BME280;9053;53.358;6.382;2023-09-18T10:57:24;100131.78;;;22.19;100.00
17855;BME280;9053;53.358;6.382;2023-09-18T10:59:54;100133.41;;;22.26;100.00
17855;BME280;9053;53.358;6.382;2023-09-18T11:02:43;100126.06;;;22.34;100.00
17855;BME280;9053;53.358;6.382;2023-09-18T11:05:29;100129.34;;;22.45;100.00
17855;BME280;9053;53.358;6.382;2023-09-18T11:08:24;100130.00;;;22.54;100.00
17855;BME280;9053;53.358;6.382;2023-09-18T11:11:02;100122.69;;;22.60;100.00
17855;BME280;9053;53.358;6.382;2023-09-18T11:13:47;100114.56;;;22.63;100.00
17855;BME280;9053;53.358;6.382;2023-09-18T11:16:35;100123.44;;;22.65;100.00
17855;BME280;9053;53.358;6.382;2023-09-18T11:19:16;100128.59;;;22.73;100.00
17855;BME280;9053;53.358;6.382;2023-09-18T11:21:46;100138.28;;;22.77;100.00
17855;BME280;9053;53.358;6.382;2023-09-18T11:24:21;100139.00;;;22.84;100.00
17855;BME280;9053;53.358;6.382;2023-09-18T11:26:51;100128.06;;;22.92;100.00
17855;BME280;9053;53.358;6.382;2023-09-18T11:29:22;100127.97;;;22.95;100.00
17855;BME280;9053;53.358;6.382;2023-09-18T11:31:58;100144.91;;;22.97;100.00
17855;BME280;9053;53.358;6.382;2023-09-18T11:35:06;100146.66;;;22.99;100.00
17855;BME280;9053;53.358;6.382;2023-09-18T11:37:44;100138.59;;;23.01;100.00
17855;BME280;9053;53.358;6.382;2023-09-18T11:40:28;100142.16;;;23.00;100.00
17855;BME280;9053;53.358;6.382;2023-09-18T11:43:22;100130.56;;;22.99;100.00
17855;BME280;9053;53.358;6.382;2023-09-18T11:45:58;100142.00;;;23.06;100.00
17855;BME280;9053;53.358;6.382;2023-09-18T11:48:32;100135.72;;;23.07;100.00
17855;BME280;9053;53.358;6.382;2023-09-18T11:51:12;100129.50;;;23.05;100.00
17855;BME280;9053;53.358;6.382;2023-09-18T11:53:42;100140.19;;;23.06;100.00
17855;BME280;9053;53.358;6.382;2023-09-18T11:56:35;100131.06;;;23.14;100.00
17855;BME280;9053;53.358;6.382;2023-09-18T11:59:07;100137.97;;;23.21;100.00
17855;BME280;9053;53.358;6.382;2023-09-18T12:01:55;100136.00;;;23.27;100.00
17855;BME280;9053;53.358;6.382;2023-09-18T12:04:33;100134.13;;;23.31;100.00
17855;BME280;9053;53.358;6.382;2023-09-18T12:07:13;100139.38;;;23.34;100.00
17855;BME280;9053;53.358;6.382;2023-09-18T12:09:44;100133.09;;;23.35;100.00
17855;BME280;9053;53.358;6.382;2023-09-18T12:12:18;100133.00;;;23.38;100.00
17855;BME280;9053;53.358;6.382;2023-09-18T12:14:58;100138.19;;;23.44;100.00
17855;BME280;9053;53.358;6.382;2023-09-18T12:17:34;100135.50;;;23.44;100.00
17855;BME280;9053;53.358;6.382;2023-09-18T12:20:15;100140.13;;;23.39;100.00
17855;BME280;9053;53.358;6.382;2023-09-18T12:22:55;100139.31;;;23.36;100.00
17855;BME280;9053;53.358;6.382;2023-09-18T12:25:25;100151.00;;;23.35;100.00
17855;BME280;9053;53.358;6.382;2023-09-18T12:27:58;100144.78;;;23.32;100.00
17855;BME280;9053;53.358;6.382;2023-09-18T12:30:29;100136.94;;;23.26;100.00
17855;BME280;9053;53.358;6.382;2023-09-18T12:33:11;100146.81;;;23.24;100.00
17855;BME280;9053;53.358;6.382;2023-09-18T12:35:44;100150.38;;;23.25;100.00
17855;BME280;9053;53.358;6.382;2023-09-18T12:38:21;100146.81;;;23.24;100.00
17855;BME280;9053;53.358;6.382;2023-09-18T12:40:54;100141.47;;;23.24;100.00
17855;BME280;9053;53.358;6.382;2023-09-18T12:43:37;100150.50;;;23.20;100.00
17855;BME280;9053;53.358;6.382;2023-09-18T12:46:10;100138.88;;;23.21;100.00
17855;BME280;9053;53.358;6.382;2023-09-18T12:48:43;100142.34;;;23.25;100.00
17855;BME280;9053;53.358;6.382;2023-09-18T12:51:30;100142.16;;;23.31;100.00
17855;BME280;9053;53.358;6.382;2023-09-18T12:54:09;100150.03;;;23.37;100.00
17855;BME280;9053;53.358;6.382;2023-09-18T12:56:43;100139.16;;;23.42;99.41
17855;BME280;9053;53.358;6.382;2023-09-18T12:59:13;100135.44;;;23.46;98.82
17855;BME280;9053;53.358;6.382;2023-09-18T13:01:46;100128.19;;;23.49;98.03
17855;BME280;9053;53.358;6.382;2023-09-18T13:04:17;100124.53;;;23.52;97.41
17855;BME280;9053;53.358;6.382;2023-09-18T13:07:02;100137.88;;;23.53;96.76
17855;BME280;9053;53.358;6.382;2023-09-18T13:09:35;100131.47;;;23.59;96.44
17855;BME280;9053;53.358;6.382;2023-09-18T13:12:11;100120.53;;;23.65;96.18
17855;BME280;9053;53.358;6.382;2023-09-18T13:14:58;100120.50;;;23.67;95.21
17855;BME280;9053;53.358;6.382;2023-09-18T13:17:39;100109.75;;;23.67;94.72
17855;BME280;9053;53.358;6.382;2023-09-18T13:20:15;100119.66;;;23.65;94.21
17855;BME280;9053;53.358;6.382;2023-09-18T13:22:51;100117.00;;;23.63;94.35